createdAt,value
2022-12-12T00:01:50.768Z,10.05
2022-12-12T00:04:17.812Z,10.48
2022-12-12T00:06:44.785Z,10.60
2022-12-12T00:09:12.589Z,10.68
2022-12-12T00:11:39.851Z,11.02
2022-12-12T00:14:06.803Z,12.40
2022-12-12T00:16:33.832Z,12.43
2022-12-12T00:19:00.687Z,11.52
2022-12-12T00:21:29.506Z,11.30
2022-12-12T00:23:57.375Z,10.43
2022-12-12T00:26:31.437Z,11.50
2022-12-12T00:28:59.447Z,11.52
2022-12-12T00:31:26.714Z,10.18
2022-12-12T00:33:54.312Z,11.02
2022-12-12T00:36:27.778Z,11.38
2022-12-12T00:38:55.264Z,11.63
2022-12-12T00:41:22.998Z,9.48
2022-12-12T00:43:50.449Z,9.93
2022-12-12T00:46:21.507Z,9.20
2022-12-12T00:48:50.466Z,10.32
2022-12-12T00:51:19.542Z,8.98
2022-12-12T00:53:48.827Z,10.07
2022-12-12T00:56:17.148Z,9.90
2022-12-12T00:58:44.304Z,9.85
2022-12-12T01:01:21.530Z,10.60
2022-12-12T01:03:48.809Z,9.30
2022-12-12T01:06:15.710Z,9.55
2022-12-12T01:08:42.812Z,10.02
2022-12-12T01:11:12.155Z,9.82
2022-12-12T01:13:39.812Z,9.77
2022-12-12T01:16:07.256Z,10.80
2022-12-12T01:18:34.728Z,9.10
2022-12-12T01:21:01.747Z,8.85
2022-12-12T01:23:28.788Z,9.90
2022-12-12T01:26:08.086Z,8.93
2022-12-12T01:28:35.541Z,10.25
2022-12-12T01:31:02.442Z,10.43
2022-12-12T01:33:29.642Z,10.55
2022-12-12T01:35:57.218Z,9.43
2022-12-12T01:38:27.281Z,10.20
2022-12-12T01:40:54.676Z,10.68
2022-12-12T01:43:23.291Z,10.18
2022-12-12T01:46:00.121Z,9.95
2022-12-12T01:48:36.734Z,9.77
2022-12-12T01:51:14.826Z,10.85
2022-12-12T01:53:42.501Z,10.60
2022-12-12T01:56:14.226Z,9.85
2022-12-12T01:58:45.502Z,11.68
2022-12-12T02:01:13.185Z,10.80
2022-12-12T02:03:41.626Z,11.80
2022-12-12T02:06:13.020Z,10.95
2022-12-12T02:08:40.991Z,11.23
2022-12-12T02:11:07.857Z,12.35
2022-12-12T02:13:35.902Z,11.95
2022-12-12T02:16:31.947Z,10.93
2022-12-12T02:19:20.938Z,11.65
2022-12-12T02:21:53.707Z,10.70
2022-12-12T02:24:26.080Z,10.75
2022-12-12T02:27:13.997Z,10.82
2022-12-12T02:30:11.736Z,12.20
2022-12-12T02:32:58.417Z,11.18
2022-12-12T02:35:28.266Z,10.82
2022-12-12T02:38:07.506Z,10.73
2022-12-12T02:40:44.024Z,11.07
2022-12-12T02:43:14.094Z,11.10
2022-12-12T02:45:47.690Z,10.70
2022-12-12T02:48:20.316Z,12.75
2022-12-12T02:50:50.260Z,13.13
2022-12-12T02:53:22.479Z,13.65
2022-12-12T02:55:50.088Z,12.63
2022-12-12T02:58:19.654Z,12.70
2022-12-12T03:01:17.299Z,12.90
2022-12-12T03:04:25.107Z,11.93
2022-12-12T03:07:39.827Z,10.60
2022-12-12T03:10:17.683Z,8.27
2022-12-12T03:13:00.820Z,11.15
2022-12-12T03:16:03.183Z,10.73
2022-12-12T03:18:47.835Z,11.52
2022-12-12T03:21:25.407Z,10.55
2022-12-12T03:23:57.346Z,11.23
2022-12-12T03:26:35.692Z,11.38
2022-12-12T03:29:10.067Z,11.63
2022-12-12T03:31:41.708Z,12.00
2022-12-12T03:34:17.313Z,11.73
2022-12-12T03:36:49.519Z,11.70
2022-12-12T03:39:25.376Z,12.45
2022-12-12T03:42:00.211Z,12.82
2022-12-12T03:44:41.124Z,12.07
2022-12-12T03:47:19.608Z,13.18
2022-12-12T03:50:05.462Z,13.32
2022-12-12T03:53:08.520Z,12.60
2022-12-12T03:55:43.958Z,11.93
2022-12-12T03:58:10.749Z,13.25
2022-12-12T04:00:39.425Z,11.90
2022-12-12T04:03:11.611Z,12.75
2022-12-12T04:06:26.224Z,12.20
2022-12-12T04:09:18.917Z,13.45
2022-12-12T04:12:23.398Z,11.68
2022-12-12T04:15:17.816Z,12.02
2022-12-12T04:17:56.350Z,12.15
2022-12-12T04:20:57.066Z,11.90
2022-12-12T04:23:50.864Z,12.27
2022-12-12T04:26:40.871Z,12.18
2022-12-12T04:29:15.138Z,11.07
2022-12-12T04:34:23.820Z,10.93
2022-12-12T04:36:51.083Z,11.48
2022-12-12T04:39:20.995Z,12.20
2022-12-12T04:41:50.456Z,12.80
2022-12-12T04:44:19.876Z,13.75
2022-12-12T04:46:50.376Z,12.98
2022-12-12T04:49:24.216Z,12.93
2022-12-12T04:51:55.922Z,12.45
2022-12-12T04:54:34.864Z,11.70
2022-12-12T04:57:06.545Z,11.90
2022-12-12T04:59:34.079Z,12.77
2022-12-12T05:02:19.007Z,12.07
2022-12-12T05:05:19.293Z,10.80
2022-12-12T05:08:00.441Z,10.88
2022-12-12T05:10:27.429Z,11.35
2022-12-12T05:12:58.847Z,11.13
2022-12-12T05:15:27.227Z,10.57
2022-12-12T05:18:01.280Z,10.35
2022-12-12T05:20:28.166Z,9.75
2022-12-12T05:22:54.950Z,10.07
2022-12-12T05:25:21.704Z,8.68
2022-12-12T05:27:48.753Z,9.85
2022-12-12T05:30:16.146Z,10.68
2022-12-12T05:32:43.128Z,10.55
2022-12-12T05:35:11.490Z,10.18
2022-12-12T05:37:39.043Z,10.40
2022-12-12T05:40:08.351Z,9.98
2022-12-12T05:42:35.371Z,10.13
2022-12-12T05:45:02.346Z,10.43
2022-12-12T05:47:29.174Z,10.07
2022-12-12T05:49:55.970Z,10.73
2022-12-12T05:52:22.870Z,10.32
2022-12-12T05:54:50.278Z,10.18
2022-12-12T05:57:18.958Z,11.00
2022-12-12T05:59:46.562Z,11.70
2022-12-12T06:02:14.382Z,10.85
2022-12-12T06:04:41.869Z,10.32
2022-12-12T06:07:09.076Z,10.93
2022-12-12T06:09:36.563Z,10.43
2022-12-12T06:12:03.589Z,10.02
2022-12-12T06:14:30.407Z,10.30
2022-12-12T06:16:57.311Z,10.23
2022-12-12T06:19:24.151Z,10.15
2022-12-12T06:21:51.102Z,10.57
2022-12-12T06:24:17.889Z,9.40
2022-12-12T06:26:44.731Z,10.45
2022-12-12T06:29:11.622Z,9.80
2022-12-12T06:31:38.517Z,9.40
2022-12-12T06:34:05.344Z,10.68
2022-12-12T06:36:32.201Z,9.52
2022-12-12T06:39:00.483Z,10.57
2022-12-12T06:41:29.881Z,10.65
2022-12-12T06:43:56.923Z,10.32
2022-12-12T06:46:26.643Z,11.10
2022-12-12T06:48:55.128Z,10.98
2022-12-12T06:51:33.296Z,11.82
2022-12-12T06:54:00.328Z,11.68
2022-12-12T06:56:27.905Z,10.88
2022-12-12T06:58:55.653Z,11.18
2022-12-12T07:01:23.794Z,10.13
2022-12-12T07:03:51.848Z,10.80
2022-12-12T07:06:22.114Z,10.93
2022-12-12T07:08:49.561Z,10.18
2022-12-12T07:11:22.604Z,10.48
2022-12-12T07:13:50.270Z,10.90
2022-12-12T07:16:18.517Z,10.18
2022-12-12T07:18:45.800Z,10.00
2022-12-12T07:21:15.456Z,9.68
2022-12-12T07:23:42.386Z,9.25
2022-12-12T07:26:14.918Z,9.40
2022-12-12T07:28:41.792Z,10.05
2022-12-12T07:31:11.223Z,9.68
2022-12-12T07:33:43.628Z,10.07
2022-12-12T07:36:13.038Z,10.20
2022-12-12T07:38:40.587Z,10.73
2022-12-12T07:41:10.719Z,9.73
2022-12-12T07:43:43.330Z,9.95
2022-12-12T07:46:17.574Z,9.98
2022-12-12T07:48:44.921Z,7.32
2022-12-12T07:51:12.500Z,10.18
2022-12-12T07:53:39.377Z,10.48
2022-12-12T07:56:07.640Z,9.68
2022-12-12T07:58:35.540Z,9.60
2022-12-12T08:01:19.128Z,9.93
2022-12-12T08:03:47.500Z,10.57
2022-12-12T08:06:16.742Z,9.23
2022-12-12T08:08:44.482Z,10.50
2022-12-12T08:11:13.625Z,10.10
2022-12-12T08:13:41.653Z,10.93
2022-12-12T08:16:16.881Z,10.32
2022-12-12T08:18:44.396Z,9.63
2022-12-12T08:21:13.100Z,10.25
2022-12-12T08:23:41.139Z,10.85
2022-12-12T08:26:10.746Z,9.10
2022-12-12T08:28:37.833Z,9.85
2022-12-12T08:31:05.008Z,9.60
2022-12-12T08:33:31.938Z,10.05
2022-12-12T08:35:58.782Z,9.95
2022-12-12T08:38:26.845Z,10.40
2022-12-12T08:40:53.716Z,9.60
2022-12-12T08:43:20.499Z,10.68
2022-12-12T08:45:47.936Z,10.73
2022-12-12T08:48:14.741Z,9.93
2022-12-12T08:50:42.393Z,10.40
2022-12-12T08:53:09.365Z,10.48
2022-12-12T08:55:36.330Z,10.20
2022-12-12T08:58:03.141Z,10.63
2022-12-12T09:00:30.134Z,10.40
2022-12-12T09:02:57.307Z,11.60
2022-12-12T09:05:24.187Z,10.88
2022-12-12T09:07:51.133Z,11.25
2022-12-12T09:10:18.183Z,10.85
2022-12-12T09:12:45.056Z,11.07
2022-12-12T09:15:12.493Z,11.20
2022-12-12T09:17:40.182Z,11.80
2022-12-12T09:20:07.567Z,10.38
2022-12-12T09:22:34.411Z,11.10
2022-12-12T09:25:01.258Z,11.10
2022-12-12T09:27:28.198Z,11.35
2022-12-12T09:29:55.078Z,10.23
2022-12-12T09:32:24.548Z,11.13
2022-12-12T09:34:51.768Z,10.80
2022-12-12T09:37:18.750Z,11.18
2022-12-12T09:39:45.549Z,11.93
2022-12-12T09:42:24.841Z,11.50
2022-12-12T09:44:57.674Z,11.75
2022-12-12T09:47:43.432Z,11.10
2022-12-12T09:50:30.920Z,11.70
2022-12-12T09:53:04.724Z,11.73
2022-12-12T09:55:38.914Z,10.80
2022-12-12T10:00:38.506Z,10.57
2022-12-12T10:03:22.351Z,9.43
2022-12-12T10:09:34.420Z,10.85
2022-12-12T10:12:08.012Z,11.57
2022-12-12T10:14:48.237Z,11.40
2022-12-12T10:17:23.309Z,11.52
2022-12-12T10:19:54.627Z,11.15
2022-12-12T10:22:47.933Z,12.52
2022-12-12T10:25:25.517Z,13.07
2022-12-12T10:28:00.314Z,13.23
2022-12-12T10:30:30.273Z,12.93
2022-12-12T10:33:16.055Z,12.98
2022-12-12T10:36:08.989Z,12.23
2022-12-12T10:39:03.379Z,12.55
2022-12-12T10:41:52.779Z,12.45
2022-12-12T10:44:48.079Z,12.30
2022-12-12T10:47:15.217Z,13.23
2022-12-12T10:49:42.600Z,12.27
2022-12-12T10:52:18.564Z,13.30
2022-12-12T10:54:52.702Z,12.55
2022-12-12T10:59:54.001Z,11.18
2022-12-12T11:02:29.214Z,11.15
2022-12-12T11:05:05.388Z,11.02
2022-12-12T11:07:37.778Z,12.48
2022-12-12T11:10:14.203Z,12.10
2022-12-12T11:12:41.048Z,11.60
2022-12-12T11:15:17.105Z,11.52
2022-12-12T11:17:44.871Z,12.20
2022-12-12T11:20:18.418Z,13.23
2022-12-12T11:22:45.322Z,13.15
2022-12-12T11:25:31.641Z,12.98
2022-12-12T11:28:06.357Z,12.18
2022-12-12T11:30:39.397Z,12.82
2022-12-12T11:33:08.700Z,12.57
2022-12-12T11:35:45.569Z,12.55
2022-12-12T11:38:20.855Z,13.05
2022-12-12T11:40:59.488Z,12.70
2022-12-12T11:43:29.815Z,13.80
2022-12-12T11:46:08.215Z,12.80
2022-12-12T11:48:44.045Z,12.88
2022-12-12T11:51:11.674Z,13.32
2022-12-12T11:53:42.727Z,11.85
2022-12-12T11:56:45.803Z,12.80
2022-12-12T11:59:45.834Z,11.85
2022-12-12T12:02:50.178Z,12.70
2022-12-12T12:05:48.381Z,11.07
2022-12-12T12:08:35.226Z,11.00
2022-12-12T12:11:20.207Z,11.07
2022-12-12T12:14:01.969Z,11.70
2022-12-12T12:17:09.485Z,10.98
2022-12-12T12:19:54.249Z,10.18
2022-12-12T12:22:27.144Z,9.43
2022-12-12T12:25:13.066Z,9.70
2022-12-12T12:27:54.173Z,9.25
2022-12-12T12:30:23.397Z,9.55
2022-12-12T12:33:20.436Z,9.50
2022-12-12T12:36:05.158Z,9.57
2022-12-12T12:39:04.273Z,9.43
2022-12-12T12:41:37.002Z,8.65
2022-12-12T12:44:29.019Z,8.32
2022-12-12T12:47:17.417Z,8.55
2022-12-12T12:49:49.707Z,8.48
2022-12-12T12:52:19.654Z,9.98
2022-12-12T12:54:48.966Z,9.05
2022-12-12T12:57:39.019Z,9.90
2022-12-12T13:00:20.824Z,9.88
2022-12-12T13:03:06.242Z,9.98
2022-12-12T13:05:50.477Z,8.30
2022-12-12T13:08:29.161Z,9.15
2022-12-12T13:11:02.674Z,9.18
2022-12-12T13:13:31.843Z,9.60
2022-12-12T13:16:09.024Z,8.82
2022-12-12T13:18:45.903Z,9.48
2022-12-12T13:21:22.086Z,8.18
2022-12-12T13:24:03.674Z,9.52
2022-12-12T13:26:55.842Z,9.57
2022-12-12T13:29:35.475Z,9.05
2022-12-12T13:32:27.268Z,9.43
2022-12-12T13:34:58.376Z,9.95
2022-12-12T13:37:26.192Z,9.88
2022-12-12T13:40:01.989Z,8.80
2022-12-12T13:42:54.735Z,9.20
2022-12-12T13:45:39.618Z,9.85
2022-12-12T13:48:29.066Z,9.35
2022-12-12T13:51:31.076Z,8.77
2022-12-12T13:54:12.256Z,9.63
2022-12-12T13:56:46.674Z,9.25
2022-12-12T13:59:29.704Z,7.53
2022-12-12T14:02:01.572Z,9.95
2022-12-12T14:04:35.413Z,10.40
2022-12-12T14:07:25.583Z,10.10
2022-12-12T14:09:56.745Z,8.95
2022-12-12T14:12:31.387Z,10.45
2022-12-12T14:14:59.331Z,9.20
2022-12-12T14:17:32.466Z,10.93
2022-12-12T14:20:04.254Z,10.55
2022-12-12T14:22:37.384Z,10.65
2022-12-12T14:25:04.305Z,11.60
2022-12-12T14:28:02.767Z,10.77
2022-12-12T14:30:48.691Z,9.45
2022-12-12T14:33:37.386Z,9.88
2022-12-12T14:36:09.005Z,9.82
2022-12-12T14:39:03.402Z,11.00
2022-12-12T14:41:37.661Z,9.07
2022-12-12T14:46:53.867Z,9.05
2022-12-12T14:49:20.769Z,9.40
2022-12-12T14:51:52.097Z,9.60
2022-12-12T14:54:22.161Z,9.95
2022-12-12T14:56:53.939Z,10.35
2022-12-12T14:59:25.488Z,9.27
2022-12-12T15:01:59.447Z,10.45
2022-12-12T15:04:30.959Z,10.13
2022-12-12T15:06:59.907Z,10.95
2022-12-12T15:09:37.494Z,10.20
2022-12-12T15:12:10.619Z,9.68
2022-12-12T15:14:40.046Z,10.45
2022-12-12T15:17:19.448Z,9.70
2022-12-12T15:19:58.664Z,10.20
2022-12-12T15:22:29.954Z,9.38
2022-12-12T15:24:59.727Z,9.48
2022-12-12T15:27:47.077Z,9.88
2022-12-12T15:30:39.299Z,10.00
2022-12-12T15:33:17.607Z,8.13
2022-12-12T15:36:01.392Z,9.50
2022-12-12T15:38:29.434Z,9.02
2022-12-12T15:40:59.035Z,9.57
2022-12-12T15:43:30.569Z,9.43
2022-12-12T15:46:00.142Z,8.45
2022-12-12T15:48:27.807Z,9.07
2022-12-12T15:51:03.252Z,9.27
2022-12-12T15:53:31.931Z,9.43
2022-12-12T15:56:09.814Z,8.85
2022-12-12T15:58:41.432Z,8.95
2022-12-12T16:01:21.072Z,8.60
2022-12-12T16:04:00.748Z,7.93
2022-12-12T16:06:38.608Z,7.93
2022-12-12T16:09:11.438Z,7.88
2022-12-12T16:11:42.210Z,8.55
2022-12-12T16:14:41.628Z,8.43
2022-12-12T16:17:23.581Z,9.68
2022-12-12T16:20:02.460Z,8.35
2022-12-12T16:22:34.854Z,9.05
2022-12-12T16:25:25.653Z,8.40
2022-12-12T16:28:05.899Z,9.70
2022-12-12T16:30:33.403Z,8.07
2022-12-12T16:33:30.179Z,8.07
2022-12-12T16:36:00.432Z,7.22
2022-12-12T16:38:28.650Z,7.90
2022-12-12T16:40:57.721Z,8.25
2022-12-12T16:43:25.097Z,8.40
2022-12-12T16:45:56.100Z,8.23
2022-12-12T16:48:31.440Z,9.65
2022-12-12T16:51:05.496Z,10.13
2022-12-12T16:53:33.808Z,12.68
2022-12-12T16:56:02.124Z,9.45
2022-12-12T16:58:29.136Z,8.88
2022-12-12T17:00:56.354Z,17.45
2022-12-12T17:03:23.870Z,17.63
2022-12-12T17:05:51.582Z,18.40
2022-12-12T17:08:20.236Z,14.02
2022-12-12T17:10:48.868Z,12.05
2022-12-12T17:13:18.730Z,10.43
2022-12-12T17:15:46.517Z,9.75
2022-12-12T17:18:13.586Z,10.07
2022-12-12T17:20:41.087Z,9.23
2022-12-12T17:23:28.011Z,9.35
2022-12-12T17:26:02.582Z,8.63
2022-12-12T17:28:32.803Z,8.30
2022-12-12T17:31:00.440Z,8.57
2022-12-12T17:33:27.533Z,9.98
2022-12-12T17:36:05.534Z,9.77
2022-12-12T17:38:33.246Z,10.07
2022-12-12T17:41:04.876Z,9.50
2022-12-12T17:43:31.802Z,10.73
2022-12-12T17:46:08.247Z,10.00
2022-12-12T17:48:35.845Z,10.75
2022-12-12T17:51:05.518Z,15.50
2022-12-12T17:53:38.402Z,14.00
2022-12-12T17:56:09.823Z,13.98
2022-12-12T17:58:38.541Z,11.75
2022-12-12T18:01:10.534Z,11.55
2022-12-12T18:03:37.798Z,12.70
2022-12-12T18:06:05.046Z,12.75
2022-12-12T18:08:31.898Z,12.27
2022-12-12T18:10:58.791Z,11.25
2022-12-12T18:13:26.236Z,10.45
2022-12-12T18:15:59.830Z,10.10
2022-12-12T18:18:27.704Z,9.93
2022-12-12T18:20:54.511Z,10.10
2022-12-12T18:23:22.134Z,10.27
2022-12-12T18:25:49.080Z,10.50
2022-12-12T18:28:15.902Z,10.35
2022-12-12T18:30:42.807Z,9.73
2022-12-12T18:33:10.261Z,10.05
2022-12-12T18:35:37.300Z,11.30
2022-12-12T18:38:04.196Z,11.18
2022-12-12T18:40:31.185Z,10.80
2022-12-12T18:42:58.049Z,12.80
2022-12-12T18:45:24.988Z,13.45
2022-12-12T18:47:51.820Z,11.80
2022-12-12T18:50:19.289Z,11.45
2022-12-12T18:52:47.493Z,11.35
2022-12-12T18:55:14.544Z,11.20
2022-12-12T18:57:41.545Z,11.07
2022-12-12T19:00:08.847Z,11.35
2022-12-12T19:02:38.488Z,11.18
2022-12-12T19:05:06.964Z,10.68
2022-12-12T19:07:33.984Z,11.73
2022-12-12T19:10:00.809Z,12.38
2022-12-12T19:12:28.083Z,12.40
2022-12-12T19:17:42.793Z,11.55
2022-12-12T19:20:09.942Z,13.05
2022-12-12T19:22:52.039Z,11.45
2022-12-12T19:25:19.540Z,13.60
2022-12-12T19:27:46.781Z,13.10
2022-12-12T19:30:15.575Z,11.85
2022-12-12T19:32:43.060Z,13.25
2022-12-12T19:35:10.121Z,13.88
2022-12-12T19:37:37.320Z,13.30
2022-12-12T19:40:04.490Z,12.13
2022-12-12T19:42:31.341Z,13.07
2022-12-12T19:44:58.182Z,12.23
2022-12-12T19:47:25.628Z,12.30
2022-12-12T19:49:52.604Z,11.98
2022-12-12T19:52:19.873Z,11.70
2022-12-12T19:54:46.879Z,12.00
2022-12-12T19:57:14.072Z,12.95
2022-12-12T19:59:41.083Z,11.63
2022-12-12T20:02:09.537Z,12.00
2022-12-12T20:04:36.622Z,12.13
2022-12-12T20:07:03.491Z,12.45
2022-12-12T20:09:30.519Z,12.02
2022-12-12T20:12:00.459Z,12.48
2022-12-12T20:14:30.939Z,13.73
2022-12-12T20:16:58.508Z,13.57
2022-12-12T20:19:27.853Z,13.40
2022-12-12T20:22:01.298Z,12.82
2022-12-12T20:24:30.547Z,12.43
2022-12-12T20:26:57.446Z,12.70
2022-12-12T20:29:24.273Z,13.55
2022-12-12T20:31:51.354Z,12.73
2022-12-12T20:34:21.772Z,12.23
2022-12-12T20:36:50.271Z,12.73
2022-12-12T20:39:19.649Z,13.25
2022-12-12T20:41:46.902Z,13.13
2022-12-12T20:44:14.237Z,13.02
2022-12-12T20:46:43.447Z,13.30
2022-12-12T20:49:14.066Z,12.98
2022-12-12T20:51:57.888Z,13.93
2022-12-12T20:56:56.144Z,12.63
2022-12-12T20:59:23.862Z,13.32
2022-12-12T21:01:51.344Z,13.20
2022-12-12T21:04:18.338Z,13.38
2022-12-12T21:06:48.671Z,13.57
2022-12-12T21:09:22.700Z,13.00
2022-12-12T21:11:52.049Z,13.18
2022-12-12T21:14:18.863Z,14.88
2022-12-12T21:16:45.681Z,13.18
2022-12-12T21:19:14.256Z,13.77
2022-12-12T21:21:42.699Z,13.77
2022-12-12T21:24:12.272Z,15.10
2022-12-12T21:26:39.452Z,13.98
2022-12-12T21:29:06.517Z,14.13
2022-12-12T21:31:36.874Z,13.70
2022-12-12T21:34:05.959Z,13.18
2022-12-12T21:36:33.676Z,12.77
2022-12-12T21:39:05.075Z,13.25
2022-12-12T21:41:31.920Z,14.15
2022-12-12T21:44:01.496Z,13.95
2022-12-12T21:46:29.654Z,13.65
2022-12-12T21:49:16.599Z,15.15
2022-12-12T21:51:44.071Z,14.43
2022-12-12T21:54:13.345Z,14.90
2022-12-12T21:56:41.198Z,15.30
2022-12-12T21:59:08.564Z,15.00
2022-12-12T22:01:35.538Z,14.13
2022-12-12T22:04:03.214Z,14.30
2022-12-12T22:06:32.502Z,14.23
2022-12-12T22:09:02.276Z,13.95
2022-12-12T22:11:40.949Z,13.98
2022-12-12T22:14:17.558Z,14.00
2022-12-12T22:16:44.822Z,13.43
2022-12-12T22:19:13.511Z,12.75
2022-12-12T22:21:40.810Z,13.25
2022-12-12T22:24:07.952Z,13.20
2022-12-12T22:26:38.151Z,12.75
2022-12-12T22:29:11.201Z,12.98
2022-12-12T22:31:39.635Z,14.60
2022-12-12T22:34:15.900Z,12.85
2022-12-12T22:36:45.173Z,13.45
2022-12-12T22:39:18.459Z,13.45
2022-12-12T22:41:46.049Z,14.48
2022-12-12T22:44:18.005Z,14.15
2022-12-12T22:46:46.777Z,14.13
2022-12-12T22:49:16.011Z,13.77
2022-12-12T22:51:43.764Z,14.30
2022-12-12T22:54:10.974Z,14.75
2022-12-12T22:56:38.981Z,14.75
2022-12-12T22:59:06.878Z,14.95
2022-12-12T23:01:34.122Z,14.55
2022-12-12T23:04:01.118Z,14.98
2022-12-12T23:06:30.854Z,15.43
2022-12-12T23:09:04.017Z,15.35
2022-12-12T23:11:31.725Z,14.97
2022-12-12T23:14:07.706Z,14.82
2022-12-12T23:16:35.664Z,14.05
2022-12-12T23:19:04.436Z,12.65
2022-12-12T23:21:32.036Z,13.02
2022-12-12T23:23:58.852Z,13.05
2022-12-12T23:26:30.002Z,13.02
2022-12-12T23:28:58.807Z,12.20
2022-12-12T23:31:32.688Z,13.50
2022-12-12T23:34:02.316Z,12.88
2022-12-12T23:36:29.277Z,14.02
2022-12-12T23:38:58.306Z,13.50
2022-12-12T23:41:26.420Z,13.07
2022-12-12T23:43:54.021Z,13.75
2022-12-12T23:46:33.598Z,13.57
2022-12-12T23:49:06.621Z,13.02
2022-12-12T23:51:36.632Z,13.10
2022-12-12T23:54:05.692Z,12.88
2022-12-12T23:56:32.934Z,12.45
2022-12-12T23:59:00.624Z,12.95
